createdAt,value
2022-08-07T00:00:31.374Z,102846.13
2022-08-07T00:02:57.892Z,102841.72
2022-08-07T00:05:25.407Z,102847.03
2022-08-07T00:07:59.959Z,102843.59
2022-08-07T00:10:29.666Z,102841.78
2022-08-07T00:13:00.166Z,102833.09
2022-08-07T00:15:38.664Z,102837.38
2022-08-07T00:18:19.195Z,102834.03
2022-08-07T00:20:46.620Z,102831.50
2022-08-07T00:23:14.826Z,102831.50
2022-08-07T00:25:45.762Z,102828.03
2022-08-07T00:28:22.105Z,102824.56
2022-08-07T00:30:48.681Z,102828.03
2022-08-07T00:33:15.621Z,102822.03
2022-08-07T00:35:45.395Z,102812.41
2022-08-07T00:38:15.487Z,102816.78
2022-08-07T00:40:41.905Z,102821.19
2022-08-07T00:43:59.042Z,102812.50
2022-08-07T00:46:00.228Z,102812.50
2022-08-07T00:48:31.932Z,102806.38
2022-08-07T00:50:59.769Z,102809.00
2022-08-07T00:53:26.655Z,102803.75
2022-08-07T00:56:00.442Z,102804.69
2022-08-07T00:58:28.435Z,102800.41
2022-08-07T01:00:54.812Z,102802.16
2022-08-07T01:03:25.489Z,102800.50
2022-08-07T01:06:08.602Z,102798.69
2022-08-07T01:08:35.094Z,102803.09
2022-08-07T01:12:04.851Z,102797.00
2022-08-07T01:13:55.624Z,102799.72
2022-08-07T01:16:30.186Z,102798.88
2022-08-07T01:18:58.373Z,102793.63
2022-08-07T01:21:26.079Z,102794.56
2022-08-07T01:23:55.042Z,102792.81
2022-08-07T01:26:23.320Z,102791.94
2022-08-07T01:28:54.419Z,102799.78
2022-08-07T01:31:27.723Z,102796.34
2022-08-07T01:34:07.386Z,102795.50
2022-08-07T01:36:40.434Z,102785.94
2022-08-07T01:39:09.531Z,102787.69
2022-08-07T01:41:38.876Z,102785.94
2022-08-07T01:44:07.675Z,102782.56
2022-08-07T01:46:34.572Z,102785.16
2022-08-07T01:49:02.387Z,102783.50
2022-08-07T01:52:03.158Z,102784.34
2022-08-07T01:54:21.884Z,102783.50
2022-08-07T01:57:28.205Z,102780.88
2022-08-07T02:00:00.911Z,102775.66
2022-08-07T02:03:12.387Z,102777.50
2022-08-07T02:05:48.380Z,102780.09
2022-08-07T02:08:23.784Z,102777.50
2022-08-07T02:10:58.085Z,102781.06
2022-08-07T02:13:57.964Z,102782.81
2022-08-07T02:16:16.557Z,102776.75
2022-08-07T02:18:48.644Z,102776.75
2022-08-07T02:21:19.705Z,102774.22
2022-08-07T02:23:46.477Z,102781.97
2022-08-07T02:26:32.743Z,102773.34
2022-08-07T02:29:02.237Z,102771.59
2022-08-07T02:31:29.638Z,102776.88
2022-08-07T02:34:04.212Z,102769.03
2022-08-07T02:36:39.455Z,102773.41
2022-08-07T02:39:16.451Z,102764.72
2022-08-07T02:41:50.788Z,102763.00
2022-08-07T02:44:23.612Z,102766.50
2022-08-07T02:46:54.539Z,102770.03
2022-08-07T02:49:56.376Z,102765.63
2022-08-07T02:52:13.856Z,102764.81
2022-08-07T02:54:41.663Z,102763.97
2022-08-07T02:57:13.460Z,102763.09
2022-08-07T02:59:45.407Z,102766.69
2022-08-07T03:02:22.374Z,102761.44
2022-08-07T03:04:50.752Z,102757.94
2022-08-07T03:07:21.546Z,102760.56
2022-08-07T03:10:06.300Z,102760.66
2022-08-07T03:12:35.778Z,102759.81
2022-08-07T03:15:07.733Z,102756.34
2022-08-07T03:17:53.080Z,102758.13
2022-08-07T03:20:21.755Z,102751.09
2022-08-07T03:22:50.276Z,102762.44
2022-08-07T03:25:18.191Z,102753.81
2022-08-07T03:28:09.167Z,102752.13
2022-08-07T03:30:37.146Z,102759.03
2022-08-07T03:33:08.543Z,102756.44
2022-08-07T03:35:49.967Z,102755.69
2022-08-07T03:38:17.863Z,102752.22
2022-08-07T03:40:53.948Z,102758.31
2022-08-07T03:43:26.565Z,102754.84
2022-08-07T03:45:53.560Z,102746.13
2022-08-07T03:48:20.494Z,102753.97
2022-08-07T03:50:56.009Z,102749.69
2022-08-07T03:54:01.669Z,102752.31
2022-08-07T03:56:13.657Z,102752.31
2022-08-07T03:59:09.019Z,102752.31
2022-08-07T04:01:28.776Z,102755.84
2022-08-07T04:03:55.594Z,102750.72
2022-08-07T04:06:36.223Z,102747.16
2022-08-07T04:09:04.938Z,102748.09
2022-08-07T04:12:25.003Z,102747.22
2022-08-07T04:14:37.865Z,102749.00
2022-08-07T04:17:19.784Z,102754.25
2022-08-07T04:19:54.805Z,102761.28
2022-08-07T04:22:27.483Z,102755.25
2022-08-07T04:24:57.996Z,102757.88
2022-08-07T04:27:25.732Z,102754.41
2022-08-07T04:30:01.718Z,102758.75
2022-08-07T04:32:34.644Z,102760.50
2022-08-07T04:35:06.421Z,102771.84
2022-08-07T04:37:52.852Z,102769.22
2022-08-07T04:40:26.755Z,102771.91
2022-08-07T04:43:02.005Z,102764.91
2022-08-07T04:45:57.732Z,102764.06
2022-08-07T04:48:28.123Z,102766.75
2022-08-07T04:51:21.336Z,102772.84
2022-08-07T04:54:06.962Z,102765.81
2022-08-07T04:58:09.808Z,102778.91
2022-08-07T05:00:12.687Z,102776.28
2022-08-07T05:02:49.216Z,102771.13
2022-08-07T05:05:52.950Z,102773.66
2022-08-07T05:09:00.006Z,102774.44
2022-08-07T05:11:57.510Z,102772.56
2022-08-07T05:14:56.442Z,102778.75
2022-08-07T05:18:00.543Z,102779.59
2022-08-07T05:20:09.572Z,102775.97
2022-08-07T05:22:39.161Z,102776.91
2022-08-07T05:25:08.654Z,102782.97
2022-08-07T05:28:15.820Z,102778.59
2022-08-07T05:30:32.858Z,102775.88
2022-08-07T05:33:02.515Z,102787.19
2022-08-07T05:35:33.382Z,102790.66
2022-08-07T05:38:09.971Z,102791.59
2022-08-07T05:40:49.541Z,102796.75
2022-08-07T05:43:18.655Z,102784.56
2022-08-07T05:45:48.314Z,102785.31
2022-08-07T05:48:15.517Z,102778.34
2022-08-07T05:50:46.368Z,102779.44
2022-08-07T05:54:13.097Z,102776.81
2022-08-07T05:56:02.063Z,102782.88
2022-08-07T05:58:36.270Z,102776.81
2022-08-07T06:01:06.141Z,102791.69
2022-08-07T06:03:56.902Z,102797.75
2022-08-07T06:06:29.902Z,102795.06
2022-08-07T06:08:59.344Z,102796.75
2022-08-07T06:11:26.297Z,102798.41
2022-08-07T06:14:11.595Z,102795.97
2022-08-07T06:16:40.240Z,102787.19
2022-08-07T06:19:08.007Z,102778.41
2022-08-07T06:22:16.359Z,102789.63
2022-08-07T06:24:45.570Z,102788.63
2022-08-07T06:27:43.960Z,102791.16
2022-08-07T06:30:08.828Z,102796.31
2022-08-07T06:32:55.198Z,102789.28
2022-08-07T06:35:21.906Z,102792.88
2022-08-07T06:37:49.018Z,102795.41
2022-08-07T06:40:21.570Z,102797.94
2022-08-07T06:42:49.936Z,102792.69
2022-08-07T06:45:21.207Z,102786.50
2022-08-07T06:47:58.648Z,102790.16
2022-08-07T06:50:27.046Z,102786.84
2022-08-07T06:52:58.315Z,102787.78
2022-08-07T06:55:53.933Z,102782.63
2022-08-07T06:58:17.816Z,102789.72
2022-08-07T07:00:48.915Z,102785.31
2022-08-07T07:03:26.307Z,102784.31
2022-08-07T07:06:11.211Z,102791.16
2022-08-07T07:08:39.753Z,102774.53
2022-08-07T07:12:07.969Z,102784.06
2022-08-07T07:14:02.464Z,102784.84
2022-08-07T07:16:34.030Z,102788.38
2022-08-07T07:19:56.156Z,102793.53
2022-08-07T07:22:11.820Z,102801.38
2022-08-07T07:24:58.497Z,102805.69
2022-08-07T07:27:35.797Z,102803.09
2022-08-07T07:30:37.796Z,102796.91
2022-08-07T07:33:11.523Z,102798.63
2022-08-07T07:35:54.513Z,102808.19
2022-08-07T07:38:28.722Z,102807.19
2022-08-07T07:41:02.121Z,102807.09
2022-08-07T07:43:47.848Z,102804.47
2022-08-07T07:46:37.488Z,102798.28
2022-08-07T07:49:08.985Z,102799.97
2022-08-07T07:51:59.577Z,102792.94
2022-08-07T07:54:28.016Z,102785.94
2022-08-07T07:56:57.304Z,102792.88
2022-08-07T07:59:51.638Z,102793.72
2022-08-07T08:02:34.044Z,102784.06
2022-08-07T08:05:04.091Z,102778.84
2022-08-07T08:07:35.959Z,102777.09
2022-08-07T08:10:14.960Z,102777.81
2022-08-07T08:13:00.490Z,102779.63
2022-08-07T08:18:24.244Z,102776.03
2022-08-07T08:18:36.321Z,102778.56
2022-08-07T08:20:51.923Z,102776.03
2022-08-07T08:23:40.208Z,102774.28
2022-08-07T08:26:26.508Z,102767.25
2022-08-07T08:28:55.715Z,102766.34
2022-08-07T08:31:59.328Z,102768.09
2022-08-07T08:34:19.030Z,102766.41
2022-08-07T08:36:57.930Z,102759.41
2022-08-07T08:39:39.860Z,102766.34
2022-08-07T08:42:40.253Z,102764.63
2022-08-07T08:45:42.067Z,102765.38
2022-08-07T08:48:40.920Z,102762.00
2022-08-07T08:51:26.063Z,102761.09
2022-08-07T08:54:15.884Z,102761.09
2022-08-07T08:56:49.745Z,102757.59
2022-08-07T08:59:48.020Z,102756.03
2022-08-07T09:02:36.554Z,102756.22
2022-08-07T09:05:37.395Z,102751.97
2022-08-07T09:08:31.671Z,102754.69
2022-08-07T09:11:43.014Z,102742.59
2022-08-07T09:14:12.490Z,102746.13
2022-08-07T09:16:57.412Z,102750.53
2022-08-07T09:19:52.829Z,102752.25
2022-08-07T09:24:33.424Z,102744.22
2022-08-07T09:25:25.591Z,102750.53
2022-08-07T09:28:05.094Z,102744.59
2022-08-07T09:30:54.991Z,102753.31
2022-08-07T09:33:57.209Z,102740.16
2022-08-07T09:36:35.451Z,102742.69
2022-08-07T09:39:17.992Z,102742.50
2022-08-07T09:42:33.424Z,102739.81
2022-08-07T09:47:26.145Z,102735.31
2022-08-07T09:48:30.206Z,102732.63
2022-08-07T09:52:10.658Z,102739.63
2022-08-07T09:54:21.242Z,102737.88
2022-08-07T09:57:21.669Z,102727.38
2022-08-07T10:00:14.386Z,102727.38
2022-08-07T10:04:06.373Z,102720.44
2022-08-07T10:06:55.858Z,102718.56
2022-08-07T10:09:42.942Z,102716.81
2022-08-07T10:12:53.190Z,102716.72
2022-08-07T10:15:44.028Z,102711.41
2022-08-07T10:18:17.236Z,102708.69
2022-08-07T10:21:50.581Z,102704.19
2022-08-07T10:24:50.901Z,102702.47
2022-08-07T10:27:46.097Z,102691.09
2022-08-07T10:30:18.517Z,102692.69
2022-08-07T10:33:14.787Z,102690.91
2022-08-07T10:36:11.017Z,102695.22
2022-08-07T10:38:51.194Z,102689.88
2022-08-07T10:41:51.680Z,102685.56
2022-08-07T10:44:37.558Z,102677.69
2022-08-07T10:47:27.010Z,102681.09
2022-08-07T10:50:25.997Z,102682.84
2022-08-07T10:52:55.558Z,102676.69
2022-08-07T10:55:38.602Z,102684.47
2022-08-07T10:58:40.242Z,102666.94
2022-08-07T11:01:35.217Z,102667.91
2022-08-07T11:04:40.699Z,102672.28
2022-08-07T11:08:03.017Z,102665.38
2022-08-07T11:10:38.058Z,102649.75
2022-08-07T11:14:44.914Z,102646.16
2022-08-07T11:16:33.467Z,102646.94
2022-08-07T11:19:21.654Z,102635.59
2022-08-07T11:22:06.188Z,102637.28
2022-08-07T11:24:59.065Z,102640.75
2022-08-07T11:28:03.070Z,102638.97
2022-08-07T11:30:43.942Z,102634.56
2022-08-07T11:33:54.354Z,102636.38
2022-08-07T11:36:30.566Z,102627.56
2022-08-07T11:39:19.743Z,102638.06
2022-08-07T11:42:03.348Z,102635.44
2022-08-07T11:44:52.760Z,102631.84
2022-08-07T11:47:59.427Z,102634.38
2022-08-07T11:50:57.381Z,102620.44
2022-08-07T11:54:00.945Z,102623.06
2022-08-07T11:56:40.575Z,102617.72
2022-08-07T12:00:07.865Z,102615.94
2022-08-07T12:02:30.917Z,102613.31
2022-08-07T12:05:02.372Z,102609.88
2022-08-07T12:07:40.995Z,102608.09
2022-08-07T12:10:19.208Z,102607.25
2022-08-07T12:13:02.956Z,102606.31
2022-08-07T12:16:06.966Z,102609.78
2022-08-07T12:18:45.125Z,102605.38
2022-08-07T12:21:55.847Z,102608.84
2022-08-07T12:24:37.719Z,102609.69
2022-08-07T12:27:14.990Z,102608.75
2022-08-07T12:29:53.664Z,102609.59
2022-08-07T12:32:28.146Z,102606.13
2022-08-07T12:34:59.110Z,102607.72
2022-08-07T12:38:09.644Z,102608.56
2022-08-07T12:40:46.336Z,102602.50
2022-08-07T12:43:10.872Z,102606.88
2022-08-07T12:45:59.004Z,102600.59
2022-08-07T12:48:52.815Z,102593.66
2022-08-07T12:51:46.667Z,102595.47
2022-08-07T12:54:38.459Z,102596.38
2022-08-07T12:57:10.261Z,102597.25
2022-08-07T12:59:54.625Z,102599.00
2022-08-07T13:02:49.467Z,102598.19
2022-08-07T13:06:03.969Z,102596.47
2022-08-07T13:08:33.149Z,102589.47
2022-08-07T13:11:05.542Z,102590.50
2022-08-07T13:13:50.071Z,102591.34
2022-08-07T13:16:38.057Z,102587.78
2022-08-07T13:19:18.375Z,102585.16
2022-08-07T13:22:20.044Z,102587.59
2022-08-07T13:25:02.738Z,102590.97
2022-08-07T13:28:12.658Z,102589.09
2022-08-07T13:30:48.958Z,102581.16
2022-08-07T13:34:33.648Z,102589.00
2022-08-07T13:36:49.004Z,102573.28
2022-08-07T13:40:33.117Z,102576.72
2022-08-07T13:42:25.492Z,102568.03
2022-08-07T13:44:55.398Z,102567.16
2022-08-07T13:48:06.886Z,102568.03
2022-08-07T13:50:35.819Z,102568.03
2022-08-07T13:53:19.354Z,102562.69
2022-08-07T13:55:54.338Z,102565.31
2022-08-07T13:58:43.359Z,102566.25
2022-08-07T14:01:26.117Z,102565.41
2022-08-07T14:04:07.633Z,102565.50
2022-08-07T14:06:38.992Z,102567.38
2022-08-07T14:09:09.785Z,102566.53
2022-08-07T14:11:53.374Z,102567.47
2022-08-07T14:14:41.453Z,102565.69
2022-08-07T14:17:32.375Z,102566.63
2022-08-07T14:20:40.525Z,102557.94
2022-08-07T14:23:59.452Z,102562.22
2022-08-07T14:26:29.925Z,102563.19
2022-08-07T14:29:02.961Z,102559.59
2022-08-07T14:31:43.116Z,102564.94
2022-08-07T14:34:29.231Z,102570.19
2022-08-07T14:36:59.245Z,102564.94
2022-08-07T14:40:18.099Z,102566.72
2022-08-07T14:42:31.438Z,102566.81
2022-08-07T14:45:20.887Z,102576.38
2022-08-07T14:47:49.128Z,102551.91
2022-08-07T14:50:19.170Z,102563.28
2022-08-07T14:52:50.263Z,102560.66
2022-08-07T14:55:18.097Z,102562.31
2022-08-07T14:57:58.716Z,102560.56
2022-08-07T15:00:31.366Z,102555.31
2022-08-07T15:05:54.720Z,102550.06
2022-08-07T15:08:50.386Z,102549.09
2022-08-07T15:14:22.587Z,102548.19
2022-08-07T15:17:00.686Z,102540.22
2022-08-07T15:20:30.879Z,102539.28
2022-08-07T15:22:31.314Z,102539.09
2022-08-07T15:25:16.979Z,102549.50
2022-08-07T15:28:33.092Z,102544.16
2022-08-07T15:31:04.959Z,102542.47
2022-08-07T15:33:33.413Z,102534.69
2022-08-07T15:36:05.681Z,102535.66
2022-08-07T15:42:45.115Z,102531.25
2022-08-07T15:44:17.071Z,102530.31
2022-08-07T15:46:51.866Z,102530.22
2022-08-07T15:49:25.709Z,102526.53
2022-08-07T15:52:13.998Z,102528.31
2022-08-07T15:54:48.128Z,102520.47
2022-08-07T15:57:28.346Z,102529.16
2022-08-07T16:00:31.227Z,102530.00
2022-08-07T16:02:58.826Z,102519.53
2022-08-07T16:05:31.133Z,102511.75
2022-08-07T16:08:30.356Z,102513.63
2022-08-07T16:11:26.844Z,102511.97
2022-08-07T16:14:03.225Z,102515.50
2022-08-07T16:17:00.084Z,102508.38
2022-08-07T16:19:59.072Z,102508.28
2022-08-07T16:22:55.132Z,102510.91
2022-08-07T16:25:54.716Z,102515.22
2022-08-07T16:30:08.882Z,102510.06
2022-08-07T16:31:50.875Z,102512.59
2022-08-07T16:34:48.167Z,102511.66
2022-08-07T16:38:06.162Z,102515.94
2022-08-07T16:40:30.788Z,102515.94
2022-08-07T16:44:04.102Z,102517.66
2022-08-07T16:47:09.539Z,102515.88
2022-08-07T16:50:28.885Z,102513.16
2022-08-07T16:54:01.644Z,102514.00
2022-08-07T16:56:20.245Z,102523.56
2022-08-07T16:59:10.961Z,102511.19
2022-08-07T17:01:55.629Z,102509.28
2022-08-07T17:04:36.836Z,102506.66
2022-08-07T17:07:28.528Z,102503.97
2022-08-07T17:10:38.301Z,102505.53
2022-08-07T17:13:38.857Z,102520.34
2022-08-07T17:16:25.795Z,102509.94
2022-08-07T17:18:52.139Z,102501.16
2022-08-07T17:21:23.430Z,102502.81
2022-08-07T17:24:23.671Z,102502.81
2022-08-07T17:27:08.576Z,102507.22
2022-08-07T17:30:14.460Z,102507.31
2022-08-07T17:34:08.952Z,102513.59
2022-08-07T17:36:19.930Z,102511.06
2022-08-07T17:39:10.079Z,102520.72
2022-08-07T17:42:04.705Z,102512.09
2022-08-07T17:44:52.206Z,102505.19
2022-08-07T17:47:43.332Z,102510.44
2022-08-07T17:50:18.969Z,102512.97
2022-08-07T17:52:59.022Z,102507.81
2022-08-07T17:55:55.076Z,102502.56
2022-08-07T17:58:50.584Z,102511.38
2022-08-07T18:01:29.112Z,102515.69
2022-08-07T18:04:34.804Z,102518.41
2022-08-07T18:07:19.991Z,102514.00
2022-08-07T18:10:05.611Z,102513.25
2022-08-07T18:13:11.618Z,102516.81
2022-08-07T18:16:00.390Z,102522.97
2022-08-07T18:18:47.731Z,102513.44
2022-08-07T18:21:56.681Z,102523.19
2022-08-07T18:24:36.530Z,102524.00
2022-08-07T18:27:17.181Z,102519.72
2022-08-07T18:30:06.129Z,102519.63
2022-08-07T18:32:51.820Z,102522.16
2022-08-07T18:36:02.999Z,102525.59
2022-08-07T18:39:01.205Z,102530.75
2022-08-07T18:42:16.324Z,102534.25
2022-08-07T18:45:45.110Z,102537.59
2022-08-07T18:48:09.982Z,102535.06
2022-08-07T18:52:26.058Z,102542.84
2022-08-07T18:54:30.733Z,102533.28
2022-08-07T18:57:30.613Z,102542.84
2022-08-07T19:00:04.465Z,102536.84
2022-08-07T19:03:11.914Z,102549.00
2022-08-07T19:06:01.852Z,102552.59
2022-08-07T19:08:54.664Z,102559.41
2022-08-07T19:11:37.347Z,102551.53
2022-08-07T19:14:16.976Z,102548.06
2022-08-07T19:17:06.742Z,102552.59
2022-08-07T19:20:02.129Z,102551.72
2022-08-07T19:22:38.204Z,102554.34
2022-08-07T19:26:24.613Z,102554.34
2022-08-07T19:28:57.738Z,102561.38
2022-08-07T19:31:38.170Z,102564.84
2022-08-07T19:34:08.111Z,102564.84
2022-08-07T19:36:39.751Z,102561.47
2022-08-07T19:39:09.270Z,102563.25
2022-08-07T19:42:08.077Z,102572.06
2022-08-07T19:44:42.981Z,102579.06
2022-08-07T19:47:14.532Z,102581.59
2022-08-07T19:49:56.739Z,102581.59
2022-08-07T19:52:27.965Z,102585.16
2022-08-07T19:54:57.256Z,102592.16
2022-08-07T19:58:00.478Z,102600.03
2022-08-07T20:00:35.638Z,102595.66
2022-08-07T20:03:05.854Z,102600.03
2022-08-07T20:06:02.285Z,102593.97
2022-08-07T20:08:37.461Z,102596.59
2022-08-07T20:11:10.242Z,102598.38
2022-08-07T20:13:53.735Z,102595.84
2022-08-07T20:16:35.060Z,102597.50
2022-08-07T20:19:06.159Z,102606.34
2022-08-07T20:21:42.316Z,102599.41
2022-08-07T20:24:28.752Z,102604.63
2022-08-07T20:27:02.302Z,102604.63
2022-08-07T20:29:48.338Z,102606.44
2022-08-07T20:32:25.688Z,102603.72
2022-08-07T20:34:58.175Z,102604.63
2022-08-07T20:37:46.714Z,102605.56
2022-08-07T20:40:32.206Z,102608.19
2022-08-07T20:43:14.773Z,102608.19
2022-08-07T20:46:26.007Z,102604.72
2022-08-07T20:48:57.997Z,102606.50
2022-08-07T20:51:29.856Z,102603.88
2022-08-07T20:54:08.688Z,102606.50
2022-08-07T20:56:46.164Z,102606.59
2022-08-07T21:00:04.452Z,102599.59
2022-08-07T21:02:32.714Z,102609.97
2022-08-07T21:05:01.691Z,102609.06
2022-08-07T21:07:37.419Z,102608.19
2022-08-07T21:10:11.608Z,102610.81
2022-08-07T21:12:39.700Z,102615.31
2022-08-07T21:15:10.616Z,102616.97
2022-08-07T21:18:20.327Z,102620.47
2022-08-07T21:20:37.811Z,102614.34
2022-08-07T21:23:15.493Z,102609.22
2022-08-07T21:26:13.900Z,102610.16
2022-08-07T21:28:58.176Z,102607.53
2022-08-07T21:32:10.839Z,102614.53
2022-08-07T21:34:46.046Z,102616.34
2022-08-07T21:37:21.645Z,102611.94
2022-08-07T21:39:59.639Z,102609.41
2022-08-07T21:42:55.804Z,102605.13
2022-08-07T21:46:05.298Z,102614.75
2022-08-07T21:48:48.317Z,102612.22
2022-08-07T21:51:32.119Z,102612.97
2022-08-07T21:54:24.955Z,102608.75
2022-08-07T21:56:56.125Z,102606.97
2022-08-07T22:00:03.198Z,102606.22
2022-08-07T22:02:58.704Z,102612.31
2022-08-07T22:05:44.471Z,102612.31
2022-08-07T22:08:14.326Z,102615.84
2022-08-07T22:10:50.188Z,102620.25
2022-08-07T22:13:17.393Z,102611.47
2022-08-07T22:16:45.109Z,102620.25
2022-08-07T22:18:59.344Z,102616.81
2022-08-07T22:22:02.291Z,102627.28
2022-08-07T22:24:33.090Z,102624.75
2022-08-07T22:27:06.352Z,102626.53
2022-08-07T22:29:48.436Z,102624.75
2022-08-07T22:32:38.594Z,102628.31
2022-08-07T22:35:11.209Z,102621.38
2022-08-07T22:38:04.363Z,102633.56
2022-08-07T22:40:53.447Z,102627.56
2022-08-07T22:43:48.680Z,102630.19
2022-08-07T22:47:02.143Z,102638.88
2022-08-07T22:49:37.804Z,102637.19
2022-08-07T22:52:36.817Z,102636.38
2022-08-07T22:55:29.901Z,102637.28
2022-08-07T22:58:13.179Z,102640.00
2022-08-07T23:00:57.591Z,102641.69
2022-08-07T23:03:58.967Z,102640.84
2022-08-07T23:06:54.784Z,102643.53
2022-08-07T23:10:05.362Z,102648.78
2022-08-07T23:12:50.225Z,102658.34
2022-08-07T23:16:06.031Z,102650.56
2022-08-07T23:19:11.399Z,102647.13
2022-08-07T23:21:56.235Z,102644.50
2022-08-07T23:24:47.693Z,102646.34
2022-08-07T23:28:22.882Z,102643.63
2022-08-07T23:31:06.616Z,102647.22
2022-08-07T23:34:36.192Z,102660.31
2022-08-07T23:37:19.052Z,102641.09
2022-08-07T23:40:05.737Z,102650.75
2022-08-07T23:42:53.328Z,102644.69
2022-08-07T23:45:50.130Z,102647.41
2022-08-07T23:48:35.268Z,102648.22
2022-08-07T23:52:58.956Z,102652.53
2022-08-07T23:54:19.514Z,102647.41
2022-08-07T23:57:09.412Z,102659.53
